Schneifelwetter: Wetterstation Hallschlag, 537 m . NN
Wetterdaten: Freitag, 02.04.2010
Datum Zeit Temp. A. Feuchte A. Luftdruck Regen Wind Richtung Richtung Sonnenschein Helligkeit T Regen Taupunkt Windchill
02.04.2010 00:01 -3,0 C 87 % 1013 hPa 0,0 l/m 6,3 km/h (2 Bft) S-SW 205 0 min 0 lux 0,00 min -4,9 C -3,0 C
02.04.2010 00:16 -2,6 C 88 % 1014 hPa 0,0 l/m 10,0 km/h (2 Bft) S-SW 205 0 min 0 lux 0,00 min -4,3 C -6,3 C
02.04.2010 00:31 -2,5 C 88 % 1013 hPa 0,0 l/m 6,8 km/h (2 Bft) S-SW 200 0 min 0 lux 0,00 min -4,2 C -2,9 C
02.04.2010 00:46 -2,5 C 89 % 1013 hPa 0,0 l/m 0,0 km/h (0 Bft) S-SW 200 0 min 0 lux 0,00 min -4,1 C -2,5 C
02.04.2010 01:01 -2,6 C 89 % 1013 hPa 0,0 l/m 0,0 km/h (0 Bft) S-SW 200 0 min 0 lux 0,00 min -4,2 C -2,6 C
02.04.2010 01:17 -2,6 C 89 % 1014 hPa 0,0 l/m 4,9 km/h (1 Bft) S-SW 200 0 min 0 lux 0,00 min -4,2 C -2,6 C
02.04.2010 01:32 -3,0 C 89 % 1013 hPa 0,0 l/m 4,8 km/h (1 Bft) S-SW 200 0 min 0 lux 0,00 min -4,6 C -3,0 C
02.04.2010 01:47 -3,3 C 90 % 1013 hPa 0,0 l/m 4,2 km/h (1 Bft) S-SW 200 0 min 0 lux 0,00 min -4,7 C -3,3 C
02.04.2010 02:02 -3,6 C 90 % 1013 hPa 0,0 l/m 1,6 km/h (1 Bft) S-SW 200 0 min 0 lux 0,00 min -5,0 C -3,6 C
02.04.2010 02:16 -3,9 C 89 % 1013 hPa 0,0 l/m 0,0 km/h (0 Bft) S-SW 200 0 min 0 lux 0,00 min -5,4 C -3,9 C
02.04.2010 02:31 -4,2 C 89 % 1013 hPa 0,0 l/m 0,0 km/h (0 Bft) S-SW 200 0 min 0 lux 0,00 min -5,7 C -4,2 C
02.04.2010 02:46 -4,4 C 91 % 1013 hPa 0,0 l/m 0,1 km/h (0 Bft) S-SW 200 0 min 0 lux 0,00 min -5,6 C -4,4 C
02.04.2010 03:01 -4,4 C 91 % 1013 hPa 0,0 l/m 4,1 km/h (1 Bft) S-SW 200 0 min 0 lux 0,00 min -5,6 C -4,4 C
02.04.2010 03:16 -4,2 C 92 % 1013 hPa 0,0 l/m 7,4 km/h (2 Bft) S-SW 200 0 min 0 lux 0,00 min -5,3 C -5,4 C
02.04.2010 03:31 -3,8 C 92 % 1013 hPa 0,0 l/m 8,6 km/h (2 Bft) S-SW 200 0 min 0 lux 0,00 min -4,9 C -6,3 C
02.04.2010 03:46 -3,9 C 92 % 1013 hPa 0,0 l/m 5,2 km/h (1 Bft) S-SW 200 0 min 0 lux 0,00 min -5,0 C -3,9 C
02.04.2010 04:01 -4,0 C 92 % 1013 hPa 0,0 l/m 0,0 km/h (0 Bft) S-SW 200 0 min 0 lux 0,00 min -5,1 C -4,0 C
02.04.2010 04:16 -4,0 C 93 % 1013 hPa 0,0 l/m 6,2 km/h (2 Bft) S-SW 200 0 min 0 lux 0,00 min -5,0 C -4,0 C
02.04.2010 04:31 -3,8 C 94 % 1013 hPa 0,0 l/m 8,4 km/h (2 Bft) S-SW 195 0 min 0 lux 0,00 min -4,6 C -6,1 C
02.04.2010 04:46 -3,4 C 94 % 1013 hPa 0,0 l/m 9,5 km/h (2 Bft) S22.5 175 0 min 0 lux 0,00 min -4,2 C -6,7 C
02.04.2010 05:01 -3,0 C 94 % 1013 hPa 0,0 l/m 10,1 km/h (2 Bft) S22.5 170 0 min 0 lux 0,00 min -3,8 C -6,9 C
02.04.2010 05:16 -3,2 C 94 % 1013 hPa 0,0 l/m 8,1 km/h (2 Bft) S 185 0 min 0 lux 0,00 min -4,0 C -5,1 C
02.04.2010 05:31 -3,1 C 94 % 1013 hPa 0,0 l/m 10,1 km/h (2 Bft) S 170 0 min 0 lux 0,00 min -3,9 C -7,0 C
02.04.2010 05:46 -2,9 C 94 % 1013 hPa 0,0 l/m 8,5 km/h (2 Bft) S 170 0 min 0 lux 0,00 min -3,7 C -5,2 C
02.04.2010 06:01 -2,9 C 94 % 1013 hPa 0,0 l/m 8,4 km/h (2 Bft) S 170 0 min 0 lux 0,00 min -3,7 C -5,1 C
02.04.2010 06:16 -3,0 C 94 % 1012 hPa 0,0 l/m 8,9 km/h (2 Bft) S 170 0 min 0 lux 0,00 min -3,8 C -5,7 C
02.04.2010 06:31 -2,9 C 94 % 1013 hPa 0,0 l/m 9,4 km/h (2 Bft) S 170 0 min 0 lux 0,00 min -3,7 C -6,1 C
02.04.2010 06:46 -2,8 C 95 % 1012 hPa 0,0 l/m 10,1 km/h (2 Bft) S 170 0 min 0 lux 0,00 min -3,5 C -6,6 C
02.04.2010 07:01 -2,7 C 95 % 1012 hPa 0,0 l/m 12,0 km/h (2 Bft) S 170 0 min 254 lux 0,00 min -3,4 C -8,1 C
02.04.2010 07:16 -2,6 C 95 % 1012 hPa 0,0 l/m 12,1 km/h (2 Bft) S22.5 170 0 min 586 lux 0,00 min -3,3 C -8,1 C
02.04.2010 07:31 -2,2 C 95 % 1012 hPa 0,0 l/m 11,9 km/h (2 Bft) S-SO 165 0 min 3,27 klux 0,00 min -2,9 C -7,5 C
02.04.2010 07:46 -2,1 C 95 % 1012 hPa 0,0 l/m 10,5 km/h (2 Bft) S 180 0 min 3,79 klux 0,00 min -2,8 C -6,2 C
02.04.2010 08:01 -1,8 C 94 % 1013 hPa 0,0 l/m 11,3 km/h (2 Bft) S 185 0 min 5,80 klux 0,00 min -2,6 C -6,5 C
02.04.2010 08:16 -1,5 C 94 % 1013 hPa 0,0 l/m 12,8 km/h (3 Bft) S-SO22.5 165 0 min 7,93 klux 0,00 min -2,3 C -7,3 C
02.04.2010 08:31 -1,0 C 94 % 1012 hPa 0,0 l/m 14,9 km/h (3 Bft) S22.5 175 0 min 11,0 klux 0,00 min -1,8 C -8,1 C
02.04.2010 08:46 -0,4 C 94 % 1012 hPa 0,0 l/m 19,5 km/h (3 Bft) S22.5 180 0 min 13,9 klux 0,00 min -1,2 C -9,9 C
02.04.2010 09:01 0,1 C 93 % 1013 hPa 0,0 l/m 15,5 km/h (3 Bft) S45 180 0 min 15,6 klux 0,00 min -0,9 C -7,2 C
02.04.2010 09:16 0,4 C 93 % 1013 hPa 0,0 l/m 16,9 km/h (3 Bft) S45 175 0 min 17,8 klux 0,00 min -0,6 C -7,6 C
02.04.2010 09:31 0,9 C 92 % 1012 hPa 0,0 l/m 18,8 km/h (3 Bft) S22.5 175 0 min 24,8 klux 0,00 min -0,2 C -7,9 C
02.04.2010 09:46 1,4 C 91 % 1012 hPa 0,0 l/m 19,3 km/h (3 Bft) S-SO22.5 165 0 min 30,7 klux 0,00 min 0,1 C -7,5 C
02.04.2010 10:01 2,0 C 90 % 1012 hPa 0,0 l/m 16,8 km/h (3 Bft) S-SO22.5 165 0 min 31,9 klux 0,00 min 0,5 C -5,5 C
02.04.2010 10:16 2,6 C 88 % 1012 hPa 0,0 l/m 21,6 km/h (4 Bft) S-SO22.5 165 0 min 32,8 klux 0,00 min 0,8 C -6,9 C
02.04.2010 10:31 3,1 C 86 % 1012 hPa 0,0 l/m 19,5 km/h (3 Bft) S22.5 170 0 min 36,9 klux 0,00 min 1,0 C -5,4 C
02.04.2010 10:32 3,1 C 86 % 1012 hPa 0,0 l/m 19,5 km/h (3 Bft) S22.5 170 0 min 36,9 klux 0,00 min 1,0 C -5,4 C
02.04.2010 10:32 3,1 C 86 % 1012 hPa 0,0 l/m 19,5 km/h (3 Bft) S22.5 170 0 min 36,9 klux 0,00 min 1,0 C -5,4 C
02.04.2010 10:47 3,7 C 85 % 1012 hPa 0,0 l/m 25,1 km/h (4 Bft) S-SO22.5 165 0 min 43,2 klux 0,00 min 1,4 C -6,7 C
02.04.2010 11:02 3,9 C 82 % 1012 hPa 0,0 l/m 22,0 km/h (4 Bft) S45 170 0 min 43,5 klux 0,00 min 1,1 C -5,4 C
02.04.2010 11:16 4,1 C 80 % 1012 hPa 0,0 l/m 24,6 km/h (4 Bft) S45 180 0 min 40,6 klux 0,00 min 1,0 C -6,0 C
02.04.2010 11:31 4,6 C 75 % 1012 hPa 0,0 l/m 26,0 km/h (4 Bft) S22.5 175 0 min 39,9 klux 0,00 min 0,6 C -5,8 C
02.04.2010 11:46 5,3 C 76 % 1012 hPa 0,0 l/m 27,3 km/h (4 Bft) S-SO22.5 160 15 min 49,3 klux 0,00 min 1,4 C -5,2 C
02.04.2010 12:01 6,0 C 75 % 1012 hPa 0,0 l/m 27,1 km/h (4 Bft) S22.5 170 15 min 57,4 klux 0,00 min 1,9 C -4,2 C
02.04.2010 12:16 6,7 C 72 % 1011 hPa 0,0 l/m 23,5 km/h (4 Bft) S-SO22.5 160 15 min 63,5 klux 0,00 min 2,0 C -2,2 C
02.04.2010 12:31 6,9 C 68 % 1011 hPa 0,0 l/m 33,2 km/h (5 Bft) S-SO22.5 165 15 min 61,6 klux 0,00 min 1,4 C -4,4 C
02.04.2010 12:46 6,9 C 68 % 1011 hPa 0,0 l/m 31,4 km/h (5 Bft) S-SO22.5 165 15 min 66,9 klux 0,00 min 1,4 C -4,0 C
02.04.2010 13:02 7,2 C 65 % 1011 hPa 0,0 l/m 34,0 km/h (5 Bft) S45 175 16 min 74,3 klux 0,00 min 1,1 C -4,2 C
02.04.2010 13:16 7,1 C 67 % 1011 hPa 0,0 l/m 34,2 km/h (5 Bft) S-SO45 165 14 min 76,1 klux 0,00 min 1,4 C -4,3 C
02.04.2010 13:31 7,3 C 65 % 1011 hPa 0,0 l/m 30,8 km/h (5 Bft) S-SO45 165 15 min 79,3 klux 0,00 min 1,2 C -3,3 C
02.04.2010 13:46 7,2 C 64 % 1011 hPa 0,0 l/m 34,3 km/h (5 Bft) S22.5 170 15 min 87,3 klux 0,00 min 0,9 C -4,2 C
02.04.2010 14:01 7,2 C 63 % 1011 hPa 0,0 l/m 36,0 km/h (5 Bft) S22.5 170 15 min 92,9 klux 0,00 min 0,6 C -4,6 C
02.04.2010 14:16 7,4 C 62 % 1011 hPa 0,0 l/m 30,7 km/h (5 Bft) S-SO22.5 160 15 min 86,5 klux 0,00 min 0,6 C -3,2 C
02.04.2010 14:31 7,6 C 62 % 1010 hPa 0,0 l/m 34,1 km/h (5 Bft) S22.5 175 15 min 86,4 klux 0,00 min 0,8 C -3,6 C
02.04.2010 14:47 7,6 C 63 % 1010 hPa 0,0 l/m 31,1 km/h (5 Bft) S-SO45 160 16 min 95,9 klux 0,00 min 1,0 C -3,0 C
02.04.2010 15:01 7,8 C 62 % 1010 hPa 0,0 l/m 31,8 km/h (5 Bft) S67.5 185 14 min 78,7 klux 0,00 min 1,0 C -2,8 C
02.04.2010 15:16 7,6 C 62 % 1010 hPa 0,0 l/m 31,0 km/h (5 Bft) S22.5 180 15 min 75,4 klux 0,00 min 0,8 C -2,9 C
02.04.2010 15:31 8,4 C 61 % 1010 hPa 0,0 l/m 33,4 km/h (5 Bft) S45 180 15 min 83,9 klux 0,00 min 1,3 C -2,3 C
02.04.2010 15:46 8,3 C 60 % 1009 hPa 0,0 l/m 32,0 km/h (5 Bft) S-SO45 165 0 min 32,5 klux 0,00 min 1,0 C -2,2 C
02.04.2010 16:01 8,2 C 59 % 1009 hPa 0,0 l/m 34,1 km/h (5 Bft) S45 180 0 min 34,9 klux 0,00 min 0,7 C -2,7 C
02.04.2010 16:16 8,0 C 58 % 1009 hPa 0,0 l/m 31,7 km/h (5 Bft) S45 170 0 min 28,7 klux 0,00 min 0,3 C -2,5 C
02.04.2010 16:32 8,0 C 60 % 1009 hPa 0,0 l/m 30,8 km/h (5 Bft) S45 175 16 min 58,4 klux 0,00 min 0,7 C -2,3 C
02.04.2010 16:46 8,4 C 58 % 1009 hPa 0,0 l/m 33,5 km/h (5 Bft) S-SO45 160 14 min 60,4 klux 0,00 min 0,6 C -2,3 C
02.04.2010 17:01 8,0 C 58 % 1008 hPa 0,0 l/m 31,1 km/h (5 Bft) S-SO45 165 15 min 56,0 klux 0,00 min 0,3 C -2,4 C
02.04.2010 17:16 7,6 C 60 % 1008 hPa 0,0 l/m 36,5 km/h (5 Bft) S22.5 185 0 min 16,7 klux 0,00 min 0,3 C -4,1 C
02.04.2010 17:31 7,1 C 61 % 1008 hPa 0,0 l/m 35,0 km/h (5 Bft) S67.5 175 0 min 8,78 klux 0,00 min 0,1 C -4,5 C
02.04.2010 17:46 6,4 C 66 % 1008 hPa 0,0 l/m 27,0 km/h (4 Bft) S22.5 170 0 min 10,3 klux 0,00 min 0,5 C -3,6 C
02.04.2010 18:01 6,2 C 68 % 1008 hPa 0,0 l/m 32,7 km/h (5 Bft) S22.5 170 0 min 8,45 klux 0,00 min 0,7 C -5,3 C
02.04.2010 18:17 6,0 C 69 % 1008 hPa 0,0 l/m 31,3 km/h (5 Bft) S-SO22.5 160 0 min 7,49 klux 0,00 min 0,8 C -5,3 C
02.04.2010 18:31 6,0 C 70 % 1008 hPa 0,0 l/m 31,0 km/h (5 Bft) S-SO22.5 165 0 min 11,3 klux 0,00 min 1,0 C -5,2 C
02.04.2010 18:46 5,9 C 70 % 1008 hPa 0,0 l/m 18,6 km/h (3 Bft) S-SO22.5 155 0 min 7,81 klux 0,00 min 0,9 C -1,5 C
02.04.2010 19:01 5,7 C 70 % 1008 hPa 0,0 l/m 25,6 km/h (4 Bft) S-SO45 160 0 min 6,13 klux 0,00 min 0,7 C -4,2 C
02.04.2010 19:16 5,5 C 71 % 1008 hPa 0,0 l/m 21,3 km/h (4 Bft) S-SO45 165 0 min 4,03 klux 0,00 min 0,7 C -3,0 C
02.04.2010 19:31 5,4 C 71 % 1008 hPa 0,0 l/m 20,5 km/h (4 Bft) S-SO22.5 155 0 min 3,14 klux 0,00 min 0,6 C -2,8 C
02.04.2010 19:46 5,3 C 72 % 1008 hPa 0,0 l/m 20,5 km/h (4 Bft) S-SO22.5 165 0 min 1,60 klux 0,00 min 0,7 C -3,0 C
02.04.2010 20:01 5,2 C 74 % 1008 hPa 0,0 l/m 17,4 km/h (3 Bft) S-SO45 165 0 min 414 lux 0,00 min 1,0 C -1,8 C
02.04.2010 20:16 4,7 C 78 % 1008 hPa 0,3 l/m 29,6 km/h (5 Bft) S22.5 170 0 min 185 lux 15,00 min 1,2 C -6,7 C
02.04.2010 20:31 4,4 C 80 % 1008 hPa 0,0 l/m 36,5 km/h (5 Bft) S-SO22.5 165 0 min 87 lux 0,00 min 1,3 C -8,7 C
02.04.2010 20:46 4,1 C 83 % 1008 hPa 0,0 l/m 27,2 km/h (4 Bft) S45 170 0 min 21 lux 0,00 min 1,5 C -6,9 C
02.04.2010 21:01 4,0 C 84 % 1008 hPa 0,3 l/m 24,6 km/h (4 Bft) S22.5 170 0 min 4 lux 15,00 min 1,5 C -6,2 C
02.04.2010 21:16 3,9 C 87 % 1008 hPa 0,3 l/m 28,5 km/h (4 Bft) S45 185 0 min 1 lux 15,00 min 1,9 C -7,5 C
02.04.2010 21:31 3,8 C 88 % 1008 hPa 0,0 l/m 26,8 km/h (4 Bft) S22.5 180 0 min 0 lux 0,00 min 2,0 C -7,1 C
02.04.2010 21:46 3,7 C 89 % 1007 hPa 0,0 l/m 29,7 km/h (5 Bft) S22.5 170 0 min 0 lux 0,00 min 2,1 C -8,1 C
02.04.2010 22:01 3,5 C 90 % 1008 hPa 0,0 l/m 24,5 km/h (4 Bft) S22.5 175 0 min 0 lux 0,00 min 2,0 C -6,8 C
02.04.2010 22:16 3,5 C 91 % 1007 hPa 0,0 l/m 25,3 km/h (4 Bft) S45 175 0 min 0 lux 0,00 min 2,2 C -7,1 C
02.04.2010 22:31 3,3 C 91 % 1008 hPa 0,0 l/m 24,0 km/h (4 Bft) S45 180 0 min 0 lux 0,00 min 2,0 C -6,9 C
02.04.2010 22:46 3,3 C 92 % 1008 hPa 0,0 l/m 24,3 km/h (4 Bft) S45 185 0 min 0 lux 0,00 min 2,1 C -7,0 C
02.04.2010 23:01 3,3 C 93 % 1007 hPa 0,3 l/m 20,7 km/h (4 Bft) S22.5 175 0 min 0 lux 15,00 min 2,3 C -5,7 C
02.04.2010 23:17 3,4 C 93 % 1007 hPa 0,0 l/m 18,5 km/h (3 Bft) S22.5 175 0 min 0 lux 0,00 min 2,4 C -4,6 C
02.04.2010 23:31 3,4 C 94 % 1007 hPa 0,0 l/m 24,5 km/h (4 Bft) S22.5 175 0 min 0 lux 0,00 min 2,5 C -6,9 C
02.04.2010 23:46 3,3 C 94 % 1007 hPa 0,0 l/m 24,7 km/h (4 Bft) S22.5 180 0 min 0 lux 0,00 min 2,4 C -7,1 C
02.04.2010 23:55 3,3 C 94 % 1007 hPa 0,0 l/m 19,7 km/h (3 Bft) S22.5 190 0 min 0 lux 0,00 min 2,4 C -5,2 C
_ Min-Zeit 02:46 16:16 21:46 - 00:46 - - - - - 02:31 08:46
Minimum _ -4,4 C 58 % 1007 hPa - 0,0 km/h (0 Bft) - - - - - -5,7 C -9,9 C
_ Max-Zeit 15:31 06:46 00:16 20:16 17:16 - - 13:02 14:47 20:16 23:31 18:46
Maximum _ 8,4 C 95 % 1014 hPa 0,3 l/m 36,5 km/h
S (5 Bft)
- - 16 min 95,9 klux 15,00 min 2,5 C -1,5 C
Durchschnitt _ 2,2 C 82 % 1011 hPa #1,2 l/m 19,8 km/h (3 Bft) S - #4:45 h 20,7 klux #1:00 h -0,8 C -5,1 C